首页
METAR-TAF:

METAR-TAF

机场 :

德古斯加巴, 洪都拉斯

通孔廷国际机场

纬度: 14-03N, 经度: 087-13W, 海拔: 994米

当前天气观测

该预报发布于1小时和3分钟前的23:00 UTC
风速8节,风向北转东北
温度 15°C
湿度 77%
气压 1023 hPa
能见度10公里或以上
散云层高于2200英尺
多云层高于8000英尺

METAR: MHTG 172300Z 03008KT 9999 SCT022 BKN080 15/11 Q1023 A3021 NOSIG

时间: 18:03 (00:03 UTC)

预报

该预报发布于1小时和38分钟前的22:25 UTC
预报有效从18日的 00点(UTC)到 18日的 24点(UTC)
风速10节,风向
能见度10公里或以上
散云层高于2800英尺
散云层高于8000英尺
成为
从 18日的 06点(UTC)到 18日的 08点(UTC)
能見度: 8000
少量云层高于900英尺
多云层高于2400英尺
成为
从 18日的 15点(UTC)到 18日的 17点(UTC)
能见度10公里或以上
散云层高于2400英尺
散云层高于8000英尺
几率 30%
从 18日的 20点(UTC)到 18日的 22点(UTC)
能見度: 8000
散云层高于2800英尺
多云层高于8000英尺
附近有阵雨

TAF: MHTG 172225Z 1800/1824 36010KT 9999 SCT028 SCT080 TX20/1719Z TN13/1812Z BECMG 1806/1808 8000 FEW009 BKN024 BECMG 1815/1817 9999 NSW SCT024 SCT080 PROB30 1820/1822 8000 VCSH SCT028 BKN080

超过4000个机场的气象观测和天气预报(METAR&TAF报告)。

可查询的气象台以黄色和红色小点在地图上表示。

将鼠标移到小点上方,可查看气象台名称。

然后点击查看天气观测和预报。

如需切换地图:点击带黑十字的绿色按钮放大地图;点击带横线的绿色按钮缩小地图;或者点击绿色箭头查看邻近地区的地图。


METAR-TAF: